sensor_id;sensor_type;location;lat;lon;timestamp;pressure;altitude;pressure_sealevel;temperature;humidity
36748;BME280;22716;51.556;5.080;2024-02-26T00:00:03;99132.44;;;7.25;100.00
36748;BME280;22716;51.556;5.080;2024-02-26T00:02:37;99136.84;;;7.25;100.00
36748;BME280;22716;51.556;5.080;2024-02-26T00:05:07;99129.03;;;7.25;100.00
36748;BME280;22716;51.556;5.080;2024-02-26T00:07:36;99133.38;;;7.23;100.00
36748;BME280;22716;51.556;5.080;2024-02-26T00:10:07;99134.31;;;7.22;100.00
36748;BME280;22716;51.556;5.080;2024-02-26T00:12:35;99129.16;;;7.19;100.00
36748;BME280;22716;51.556;5.080;2024-02-26T00:15:05;99136.84;;;7.23;100.00
36748;BME280;22716;51.556;5.080;2024-02-26T00:17:33;99118.75;;;7.17;100.00
36748;BME280;22716;51.556;5.080;2024-02-26T00:20:06;99132.50;;;7.24;100.00
36748;BME280;22716;51.556;5.080;2024-02-26T00:22:36;99131.84;;;7.16;100.00
36748;BME280;22716;51.556;5.080;2024-02-26T00:25:05;99123.31;;;7.09;100.00
36748;BME280;22716;51.556;5.080;2024-02-26T00:27:34;99121.59;;;7.08;100.00
36748;BME280;22716;51.556;5.080;2024-02-26T00:30:06;99118.09;;;7.09;100.00
36748;BME280;22716;51.556;5.080;2024-02-26T00:32:35;99118.13;;;7.08;100.00
36748;BME280;22716;51.556;5.080;2024-02-26T00:35:08;99129.38;;;7.10;100.00
36748;BME280;22716;51.556;5.080;2024-02-26T00:37:37;99117.25;;;7.09;100.00
36748;BME280;22716;51.556;5.080;2024-02-26T00:40:09;99118.03;;;7.12;100.00
36748;BME280;22716;51.556;5.080;2024-02-26T00:42:38;99118.13;;;7.08;100.00
36748;BME280;22716;51.556;5.080;2024-02-26T00:45:11;99115.56;;;7.06;100.00
36748;BME280;22716;51.556;5.080;2024-02-26T00:47:39;99105.22;;;7.03;100.00
36748;BME280;22716;51.556;5.080;2024-02-26T00:50:12;99124.25;;;7.05;100.00
36748;BME280;22716;51.556;5.080;2024-02-26T00:52:41;99117.44;;;7.01;100.00
36748;BME280;22716;51.556;5.080;2024-02-26T00:55:10;99124.31;;;7.04;100.00
36748;BME280;22716;51.556;5.080;2024-02-26T00:57:38;99118.25;;;7.03;100.00
36748;BME280;22716;51.556;5.080;2024-02-26T01:00:08;99115.59;;;7.05;100.00
36748;BME280;22716;51.556;5.080;2024-02-26T01:02:37;99118.19;;;7.05;100.00
36748;BME280;22716;51.556;5.080;2024-02-26T01:05:07;99124.31;;;7.04;100.00
36748;BME280;22716;51.556;5.080;2024-02-26T01:07:39;99124.34;;;7.02;100.00
36748;BME280;22716;51.556;5.080;2024-02-26T01:10:08;99120.03;;;7.01;100.00
36748;BME280;22716;51.556;5.080;2024-02-26T01:12:37;99112.28;;;6.98;100.00
36748;BME280;22716;51.556;5.080;2024-02-26T01:15:06;99129.53;;;7.04;100.00
36748;BME280;22716;51.556;5.080;2024-02-26T01:17:35;99134.81;;;6.99;100.00
36748;BME280;22716;51.556;5.080;2024-02-26T01:20:05;99134.00;;;6.97;100.00
36748;BME280;22716;51.556;5.080;2024-02-26T01:22:34;99138.41;;;6.95;100.00
36748;BME280;22716;51.556;5.080;2024-02-26T01:25:06;99134.88;;;6.96;100.00
36748;BME280;22716;51.556;5.080;2024-02-26T01:27:35;99132.34;;;6.93;100.00
36748;BME280;22716;51.556;5.080;2024-02-26T01:30:06;99132.25;;;6.98;100.00
36748;BME280;22716;51.556;5.080;2024-02-26T01:32:35;99142.75;;;6.95;100.00
36748;BME280;22716;51.556;5.080;2024-02-26T01:35:05;99137.50;;;6.96;100.00
36748;BME280;22716;51.556;5.080;2024-02-26T01:37:37;99142.00;;;6.90;100.00
36748;BME280;22716;51.556;5.080;2024-02-26T01:40:11;99143.75;;;6.88;100.00
36748;BME280;22716;51.556;5.080;2024-02-26T01:42:43;99142.03;;;6.88;100.00
36748;BME280;22716;51.556;5.080;2024-02-26T01:45:15;99137.75;;;6.84;100.00
36748;BME280;22716;51.556;5.080;2024-02-26T01:47:49;99141.22;;;6.86;100.00
36748;BME280;22716;51.556;5.080;2024-02-26T01:50:19;99131.06;;;6.74;100.00
36748;BME280;22716;51.556;5.080;2024-02-26T01:52:50;99157.78;;;6.82;100.00
36748;BME280;22716;51.556;5.080;2024-02-26T01:55:22;99157.84;;;6.79;100.00
36748;BME280;22716;51.556;5.080;2024-02-26T01:57:53;99147.56;;;6.74;100.00
36748;BME280;22716;51.556;5.080;2024-02-26T02:00:22;99142.44;;;6.70;100.00
36748;BME280;22716;51.556;5.080;2024-02-26T02:02:51;99135.59;;;6.66;100.00
36748;BME280;22716;51.556;5.080;2024-02-26T02:05:20;99139.19;;;6.59;100.00
36748;BME280;22716;51.556;5.080;2024-02-26T02:07:49;99152.09;;;6.63;100.00
36748;BME280;22716;51.556;5.080;2024-02-26T02:10:21;99136.59;;;6.60;100.00
36748;BME280;22716;51.556;5.080;2024-02-26T02:12:51;99149.41;;;6.68;100.00
36748;BME280;22716;51.556;5.080;2024-02-26T02:15:20;99156.28;;;6.72;100.00
36748;BME280;22716;51.556;5.080;2024-02-26T02:17:48;99151.09;;;6.70;100.00
36748;BME280;22716;51.556;5.080;2024-02-26T02:20:17;99146.88;;;6.65;100.00
36748;BME280;22716;51.556;5.080;2024-02-26T02:22:50;99155.44;;;6.70;100.00
36748;BME280;22716;51.556;5.080;2024-02-26T02:25:18;99148.63;;;6.64;100.00
36748;BME280;22716;51.556;5.080;2024-02-26T02:27:47;99148.75;;;6.58;100.00
36748;BME280;22716;51.556;5.080;2024-02-26T02:30:16;99154.69;;;6.63;100.00
36748;BME280;22716;51.556;5.080;2024-02-26T02:32:45;99155.63;;;6.62;100.00
36748;BME280;22716;51.556;5.080;2024-02-26T02:35:13;99167.88;;;6.57;100.00
36748;BME280;22716;51.556;5.080;2024-02-26T02:37:42;99173.97;;;6.56;100.00
36748;BME280;22716;51.556;5.080;2024-02-26T02:40:13;99173.16;;;6.53;100.00
36748;BME280;22716;51.556;5.080;2024-02-26T02:42:42;99156.97;;;6.39;100.00
36748;BME280;22716;51.556;5.080;2024-02-26T02:45:11;99158.75;;;6.37;100.00
36748;BME280;22716;51.556;5.080;2024-02-26T02:47:39;99171.84;;;6.32;100.00
36748;BME280;22716;51.556;5.080;2024-02-26T02:50:09;99177.84;;;6.34;100.00
36748;BME280;22716;51.556;5.080;2024-02-26T02:52:37;99168.38;;;6.32;100.00
36748;BME280;22716;51.556;5.080;2024-02-26T02:55:07;99169.28;;;6.31;100.00
36748;BME280;22716;51.556;5.080;2024-02-26T02:57:38;99173.75;;;6.24;100.00
36748;BME280;22716;51.556;5.080;2024-02-26T03:00:09;99170.25;;;6.25;100.00
36748;BME280;22716;51.556;5.080;2024-02-26T03:02:38;99154.84;;;6.14;100.00
36748;BME280;22716;51.556;5.080;2024-02-26T03:05:08;99179.16;;;6.13;100.00
36748;BME280;22716;51.556;5.080;2024-02-26T03:07:37;99177.50;;;6.09;100.00
36748;BME280;22716;51.556;5.080;2024-02-26T03:10:07;99173.09;;;6.13;100.00
36748;BME280;22716;51.556;5.080;2024-02-26T03:12:38;99174.78;;;6.15;100.00
36748;BME280;22716;51.556;5.080;2024-02-26T03:15:07;99183.34;;;6.20;100.00
36748;BME280;22716;51.556;5.080;2024-02-26T03:17:37;99179.00;;;6.21;100.00
36748;BME280;22716;51.556;5.080;2024-02-26T03:20:07;99179.91;;;6.18;100.00
36748;BME280;22716;51.556;5.080;2024-02-26T03:22:38;99172.31;;;6.08;100.00
36748;BME280;22716;51.556;5.080;2024-02-26T03:25:08;99172.34;;;6.05;100.00
36748;BME280;22716;51.556;5.080;2024-02-26T03:27:39;99173.22;;;6.05;100.00
36748;BME280;22716;51.556;5.080;2024-02-26T03:30:09;99176.91;;;5.94;100.00
36748;BME280;22716;51.556;5.080;2024-02-26T03:32:38;99173.56;;;5.84;100.00
36748;BME280;22716;51.556;5.080;2024-02-26T03:35:08;99172.72;;;5.85;100.00
36748;BME280;22716;51.556;5.080;2024-02-26T03:37:36;99170.94;;;5.89;100.00
36748;BME280;22716;51.556;5.080;2024-02-26T03:40:07;99177.88;;;5.90;100.00
36748;BME280;22716;51.556;5.080;2024-02-26T03:42:33;99156.56;;;5.66;100.00
36748;BME280;22716;51.556;5.080;2024-02-26T03:45:06;99181.47;;;5.80;100.00
36748;BME280;22716;51.556;5.080;2024-02-26T03:47:34;99177.19;;;5.77;100.00
36748;BME280;22716;51.556;5.080;2024-02-26T03:50:04;99183.34;;;5.72;100.00
36748;BME280;22716;51.556;5.080;2024-02-26T03:52:33;99177.25;;;5.74;100.00
36748;BME280;22716;51.556;5.080;2024-02-26T03:55:02;99163.31;;;5.77;100.00
36748;BME280;22716;51.556;5.080;2024-02-26T03:57:31;99179.00;;;5.72;100.00
36748;BME280;22716;51.556;5.080;2024-02-26T03:59:59;99176.47;;;5.69;100.00
36748;BME280;22716;51.556;5.080;2024-02-26T04:02:31;99179.13;;;5.66;100.00
36748;BME280;22716;51.556;5.080;2024-02-26T04:05:00;99177.44;;;5.62;100.00
36748;BME280;22716;51.556;5.080;2024-02-26T04:07:28;99181.72;;;5.64;100.00
36748;BME280;22716;51.556;5.080;2024-02-26T04:09:57;99180.88;;;5.64;100.00
36748;BME280;22716;51.556;5.080;2024-02-26T04:12:25;99185.09;;;5.70;100.00
36748;BME280;22716;51.556;5.080;2024-02-26T04:14:54;99185.13;;;5.68;100.00
36748;BME280;22716;51.556;5.080;2024-02-26T04:17:22;99175.75;;;5.58;100.00
36748;BME280;22716;51.556;5.080;2024-02-26T04:19:54;99183.56;;;5.58;100.00
36748;BME280;22716;51.556;5.080;2024-02-26T04:22:22;99180.88;;;5.64;100.00
36748;BME280;22716;51.556;5.080;2024-02-26T04:24:51;99185.22;;;5.63;100.00
36748;BME280;22716;51.556;5.080;2024-02-26T04:27:19;99187.88;;;5.59;100.00
36748;BME280;22716;51.556;5.080;2024-02-26T04:29:48;99191.31;;;5.61;100.00
36748;BME280;22716;51.556;5.080;2024-02-26T04:32:16;99189.66;;;5.57;100.00
36748;BME280;22716;51.556;5.080;2024-02-26T04:34:45;99194.84;;;5.57;100.00
36748;BME280;22716;51.556;5.080;2024-02-26T04:37:16;99193.13;;;5.57;100.00
36748;BME280;22716;51.556;5.080;2024-02-26T04:39:44;99190.53;;;5.56;100.00
36748;BME280;22716;51.556;5.080;2024-02-26T04:42:13;99191.34;;;5.58;100.00
36748;BME280;22716;51.556;5.080;2024-02-26T04:44:41;99197.31;;;5.66;100.00
36748;BME280;22716;51.556;5.080;2024-02-26T04:47:10;99203.47;;;5.59;100.00
36748;BME280;22716;51.556;5.080;2024-02-26T04:49:39;99204.34;;;5.58;100.00
36748;BME280;22716;51.556;5.080;2024-02-26T04:52:08;99198.28;;;5.60;100.00
36748;BME280;22716;51.556;5.080;2024-02-26T04:54:39;99207.81;;;5.60;100.00
36748;BME280;22716;51.556;5.080;2024-02-26T04:57:07;99197.41;;;5.58;100.00
36748;BME280;22716;51.556;5.080;2024-02-26T04:59:36;99210.34;;;5.63;100.00
36748;BME280;22716;51.556;5.080;2024-02-26T05:02:06;99214.59;;;5.67;100.00
36748;BME280;22716;51.556;5.080;2024-02-26T05:04:35;99222.47;;;5.61;100.00
36748;BME280;22716;51.556;5.080;2024-02-26T05:07:04;99218.13;;;5.63;100.00
36748;BME280;22716;51.556;5.080;2024-02-26T05:09:32;99229.41;;;5.62;100.00
36748;BME280;22716;51.556;5.080;2024-02-26T05:12:04;99218.19;;;5.60;100.00
36748;BME280;22716;51.556;5.080;2024-02-26T05:14:33;99224.34;;;5.54;100.00
36748;BME280;22716;51.556;5.080;2024-02-26T05:17:02;99224.22;;;5.62;100.00
36748;BME280;22716;51.556;5.080;2024-02-26T05:19:31;99211.34;;;5.54;100.00
36748;BME280;22716;51.556;5.080;2024-02-26T05:22:00;99213.91;;;5.57;100.00
36748;BME280;22716;51.556;5.080;2024-02-26T05:24:28;99225.13;;;5.58;100.00
36748;BME280;22716;51.556;5.080;2024-02-26T05:26:57;99228.59;;;5.58;100.00
36748;BME280;22716;51.556;5.080;2024-02-26T05:29:28;99214.91;;;5.47;100.00
36748;BME280;22716;51.556;5.080;2024-02-26T05:31:56;99230.41;;;5.52;100.00
36748;BME280;22716;51.556;5.080;2024-02-26T05:34:25;99232.16;;;5.53;100.00
36748;BME280;22716;51.556;5.080;2024-02-26T05:36:55;99228.69;;;5.54;100.00
36748;BME280;22716;51.556;5.080;2024-02-26T05:39:24;99233.09;;;5.49;100.00
36748;BME280;22716;51.556;5.080;2024-02-26T05:41:52;99238.22;;;5.52;100.00
36748;BME280;22716;51.556;5.080;2024-02-26T05:44:26;99246.03;;;5.50;100.00
36748;BME280;22716;51.556;5.080;2024-02-26T05:46:57;99240.88;;;5.49;100.00
36748;BME280;22716;51.556;5.080;2024-02-26T05:49:26;99249.50;;;5.49;100.00
36748;BME280;22716;51.556;5.080;2024-02-26T05:51:55;99245.19;;;5.50;100.00
36748;BME280;22716;51.556;5.080;2024-02-26T05:54:24;99234.78;;;5.50;100.00
36748;BME280;22716;51.556;5.080;2024-02-26T05:56:52;99252.88;;;5.57;100.00
36748;BME280;22716;51.556;5.080;2024-02-26T05:59:21;99258.91;;;5.59;100.00
36748;BME280;22716;51.556;5.080;2024-02-26T06:01:49;99260.63;;;5.59;100.00
36748;BME280;22716;51.556;5.080;2024-02-26T06:04:21;99263.28;;;5.57;100.00
36748;BME280;22716;51.556;5.080;2024-02-26T06:06:49;99264.06;;;5.61;100.00
36748;BME280;22716;51.556;5.080;2024-02-26T06:09:18;99272.81;;;5.55;100.00
36748;BME280;22716;51.556;5.080;2024-02-26T06:11:46;99268.50;;;5.54;100.00
36748;BME280;22716;51.556;5.080;2024-02-26T06:14:15;99283.16;;;5.60;100.00
36748;BME280;22716;51.556;5.080;2024-02-26T06:16:44;99284.88;;;5.58;100.00
36748;BME280;22716;51.556;5.080;2024-02-26T06:19:12;99288.38;;;5.57;100.00
36748;BME280;22716;51.556;5.080;2024-02-26T06:21:43;99291.84;;;5.56;100.00
36748;BME280;22716;51.556;5.080;2024-02-26T06:24:12;99300.44;;;5.61;100.00
36748;BME280;22716;51.556;5.080;2024-02-26T06:26:40;99303.03;;;5.61;100.00
36748;BME280;22716;51.556;5.080;2024-02-26T06:29:09;99310.00;;;5.60;100.00
36748;BME280;22716;51.556;5.080;2024-02-26T06:31:37;99303.16;;;5.53;100.00
36748;BME280;22716;51.556;5.080;2024-02-26T06:34:07;99315.28;;;5.53;100.00
36748;BME280;22716;51.556;5.080;2024-02-26T06:36:37;99318.69;;;5.55;100.00
36748;BME280;22716;51.556;5.080;2024-02-26T06:39:08;99326.56;;;5.50;100.00
36748;BME280;22716;51.556;5.080;2024-02-26T06:41:38;99326.56;;;5.50;100.00
36748;BME280;22716;51.556;5.080;2024-02-26T06:44:07;99317.00;;;5.54;100.00
36748;BME280;22716;51.556;5.080;2024-02-26T06:46:35;99319.47;;;5.63;100.00
36748;BME280;22716;51.556;5.080;2024-02-26T06:49:05;99319.59;;;5.54;100.00
36748;BME280;22716;51.556;5.080;2024-02-26T06:51:33;99320.44;;;5.56;100.00
36748;BME280;22716;51.556;5.080;2024-02-26T06:54:02;99325.66;;;5.54;100.00
36748;BME280;22716;51.556;5.080;2024-02-26T06:56:33;99324.75;;;5.57;100.00
36748;BME280;22716;51.556;5.080;2024-02-26T06:59:02;99330.00;;;5.52;100.00
36748;BME280;22716;51.556;5.080;2024-02-26T07:01:30;99329.22;;;5.49;100.00
36748;BME280;22716;51.556;5.080;2024-02-26T07:03:59;99347.31;;;5.52;100.00
36748;BME280;22716;51.556;5.080;2024-02-26T07:06:27;99341.34;;;5.48;100.00
36748;BME280;22716;51.556;5.080;2024-02-26T07:08:56;99347.31;;;5.52;100.00
36748;BME280;22716;51.556;5.080;2024-02-26T07:11:24;99350.81;;;5.51;100.00
36748;BME280;22716;51.556;5.080;2024-02-26T07:13:56;99356.03;;;5.49;100.00
36748;BME280;22716;51.556;5.080;2024-02-26T07:16:24;99362.16;;;5.45;100.00
36748;BME280;22716;51.556;5.080;2024-02-26T07:18:53;99370.00;;;5.41;100.00
36748;BME280;22716;51.556;5.080;2024-02-26T07:21:21;99365.63;;;5.46;100.00
36748;BME280;22716;51.556;5.080;2024-02-26T07:23:50;99375.06;;;5.50;100.00
36748;BME280;22716;51.556;5.080;2024-02-26T07:26:18;99375.09;;;5.47;100.00
36748;BME280;22716;51.556;5.080;2024-02-26T07:28:50;99374.28;;;5.43;100.00
36748;BME280;22716;51.556;5.080;2024-02-26T07:31:21;99383.88;;;5.40;100.00
36748;BME280;22716;51.556;5.080;2024-02-26T07:33:50;99385.56;;;5.41;100.00
36748;BME280;22716;51.556;5.080;2024-02-26T07:36:18;99382.09;;;5.42;100.00
36748;BME280;22716;51.556;5.080;2024-02-26T07:38:47;99384.72;;;5.42;100.00
36748;BME280;22716;51.556;5.080;2024-02-26T07:41:15;99387.28;;;5.43;100.00
36748;BME280;22716;51.556;5.080;2024-02-26T07:43:44;99389.06;;;5.40;100.00
36748;BME280;22716;51.556;5.080;2024-02-26T07:46:12;99392.53;;;5.37;100.00
36748;BME280;22716;51.556;5.080;2024-02-26T07:48:44;99395.13;;;5.37;100.00
36748;BME280;22716;51.556;5.080;2024-02-26T07:51:13;99401.28;;;5.33;100.00
36748;BME280;22716;51.556;5.080;2024-02-26T07:53:43;99396.91;;;5.35;100.00
36748;BME280;22716;51.556;5.080;2024-02-26T07:56:11;99409.00;;;5.39;100.00
36748;BME280;22716;51.556;5.080;2024-02-26T07:58:40;99412.44;;;5.40;100.00
36748;BME280;22716;51.556;5.080;2024-02-26T08:01:08;99410.69;;;5.40;100.00
36748;BME280;22716;51.556;5.080;2024-02-26T08:03:37;99413.25;;;5.43;100.00
36748;BME280;22716;51.556;5.080;2024-02-26T08:06:08;99421.88;;;5.47;100.00
36748;BME280;22716;51.556;5.080;2024-02-26T08:08:37;99414.09;;;5.45;100.00
36748;BME280;22716;51.556;5.080;2024-02-26T08:11:05;99424.50;;;5.44;100.00
36748;BME280;22716;51.556;5.080;2024-02-26T08:13:34;99431.38;;;5.46;100.00
36748;BME280;22716;51.556;5.080;2024-02-26T08:16:04;99432.25;;;5.47;100.00
36748;BME280;22716;51.556;5.080;2024-02-26T08:18:32;99448.78;;;5.43;100.00
36748;BME280;22716;51.556;5.080;2024-02-26T08:21:01;99447.09;;;5.37;100.00
36748;BME280;22716;51.556;5.080;2024-02-26T08:23:32;99460.09;;;5.36;100.00
36748;BME280;22716;51.556;5.080;2024-02-26T08:26:01;99459.28;;;5.32;100.00
36748;BME280;22716;51.556;5.080;2024-02-26T08:28:30;99462.72;;;5.33;100.00
36748;BME280;22716;51.556;5.080;2024-02-26T08:30:58;99458.41;;;5.32;100.00
36748;BME280;22716;51.556;5.080;2024-02-26T08:33:27;99467.88;;;5.37;100.00
36748;BME280;22716;51.556;5.080;2024-02-26T08:35:56;99472.16;;;5.41;100.00
36748;BME280;22716;51.556;5.080;2024-02-26T08:38:25;99479.09;;;5.41;100.00
36748;BME280;22716;51.556;5.080;2024-02-26T08:40:56;99482.50;;;5.46;100.00
36748;BME280;22716;51.556;5.080;2024-02-26T08:43:25;99483.34;;;5.46;100.00
36748;BME280;22716;51.556;5.080;2024-02-26T08:45:53;99485.94;;;5.46;100.00
36748;BME280;22716;51.556;5.080;2024-02-26T08:48:22;99485.97;;;5.45;100.00
36748;BME280;22716;51.556;5.080;2024-02-26T08:50:50;99483.41;;;5.40;100.00
36748;BME280;22716;51.556;5.080;2024-02-26T08:53:20;99492.03;;;5.44;100.00
36748;BME280;22716;51.556;5.080;2024-02-26T08:55:48;99485.22;;;5.37;100.00
36748;BME280;22716;51.556;5.080;2024-02-26T08:58:19;99495.53;;;5.43;100.00
36748;BME280;22716;51.556;5.080;2024-02-26T09:00:48;99501.56;;;5.45;100.00
36748;BME280;22716;51.556;5.080;2024-02-26T09:03:16;99498.06;;;5.47;100.00
36748;BME280;22716;51.556;5.080;2024-02-26T09:05:45;99505.84;;;5.49;100.00
36748;BME280;22716;51.556;5.080;2024-02-26T09:08:11;99506.72;;;5.48;100.00
36748;BME280;22716;51.556;5.080;2024-02-26T09:10:40;99511.13;;;5.43;100.00
36748;BME280;22716;51.556;5.080;2024-02-26T09:13:08;99513.69;;;5.46;100.00
36748;BME280;22716;51.556;5.080;2024-02-26T09:15:40;99513.78;;;5.37;100.00
36748;BME280;22716;51.556;5.080;2024-02-26T09:18:08;99532.75;;;5.42;100.00
36748;BME280;22716;51.556;5.080;2024-02-26T09:20:37;99526.72;;;5.38;100.00
36748;BME280;22716;51.556;5.080;2024-02-26T09:23:06;99537.94;;;5.45;100.00
36748;BME280;22716;51.556;5.080;2024-02-26T09:25:35;99541.34;;;5.47;100.00
36748;BME280;22716;51.556;5.080;2024-02-26T09:28:04;99527.56;;;5.42;100.00
36748;BME280;22716;51.556;5.080;2024-02-26T09:30:33;99550.84;;;5.51;100.00
36748;BME280;22716;51.556;5.080;2024-02-26T09:33:04;99548.22;;;5.52;100.00
36748;BME280;22716;51.556;5.080;2024-02-26T09:35:33;99551.72;;;5.51;100.00
36748;BME280;22716;51.556;5.080;2024-02-26T09:38:02;99558.63;;;5.54;100.00
36748;BME280;22716;51.556;5.080;2024-02-26T09:40:31;99567.34;;;5.48;100.00
36748;BME280;22716;51.556;5.080;2024-02-26T09:43:00;99560.41;;;5.49;100.00
36748;BME280;22716;51.556;5.080;2024-02-26T09:45:30;99574.19;;;5.55;100.00
36748;BME280;22716;51.556;5.080;2024-02-26T09:48:05;99572.44;;;5.56;100.00
36748;BME280;22716;51.556;5.080;2024-02-26T09:50:37;99573.34;;;5.53;100.00
36748;BME280;22716;51.556;5.080;2024-02-26T09:53:06;99570.75;;;5.52;100.00
36748;BME280;22716;51.556;5.080;2024-02-26T09:55:36;99581.06;;;5.58;100.00
36748;BME280;22716;51.556;5.080;2024-02-26T09:58:05;99583.66;;;5.58;100.00
36748;BME280;22716;51.556;5.080;2024-02-26T10:00:37;99583.69;;;5.56;100.00
36748;BME280;22716;51.556;5.080;2024-02-26T10:03:13;99584.56;;;5.57;100.00
36748;BME280;22716;51.556;5.080;2024-02-26T10:05:44;99601.03;;;5.57;100.00
36748;BME280;22716;51.556;5.080;2024-02-26T10:08:14;99595.81;;;5.56;100.00
36748;BME280;22716;51.556;5.080;2024-02-26T10:10:44;99601.84;;;5.58;100.00
36748;BME280;22716;51.556;5.080;2024-02-26T10:13:13;99601.88;;;5.59;100.00
36748;BME280;22716;51.556;5.080;2024-02-26T10:15:41;99602.75;;;5.57;100.00
36748;BME280;22716;51.556;5.080;2024-02-26T10:18:13;99606.25;;;5.53;100.00
36748;BME280;22716;51.556;5.080;2024-02-26T10:20:42;99626.16;;;5.54;100.00
36748;BME280;22716;51.556;5.080;2024-02-26T10:23:10;99627.00;;;5.56;100.00
36748;BME280;22716;51.556;5.080;2024-02-26T10:25:52;99626.97;;;5.59;100.00
36748;BME280;22716;51.556;5.080;2024-02-26T10:28:22;99630.44;;;5.58;100.00
36748;BME280;22716;51.556;5.080;2024-02-26T10:30:52;99635.59;;;5.65;100.00
36748;BME280;22716;51.556;5.080;2024-02-26T10:33:24;99646.03;;;5.59;100.00
36748;BME280;22716;51.556;5.080;2024-02-26T10:35:54;99637.41;;;5.57;100.00
36748;BME280;22716;51.556;5.080;2024-02-26T10:38:22;99651.19;;;5.61;100.00
36748;BME280;22716;51.556;5.080;2024-02-26T10:40:51;99655.53;;;5.63;100.00
36748;BME280;22716;51.556;5.080;2024-02-26T10:43:20;99669.38;;;5.65;100.00
36748;BME280;22716;51.556;5.080;2024-02-26T10:45:48;99666.75;;;5.64;100.00
36748;BME280;22716;51.556;5.080;2024-02-26T10:48:17;99679.75;;;5.65;100.00
36748;BME280;22716;51.556;5.080;2024-02-26T10:50:49;99678.00;;;5.69;100.00
36748;BME280;22716;51.556;5.080;2024-02-26T10:53:20;99676.25;;;5.66;100.00
36748;BME280;22716;51.556;5.080;2024-02-26T10:55:53;99690.16;;;5.64;100.00
36748;BME280;22716;51.556;5.080;2024-02-26T10:58:23;99685.81;;;5.66;100.00
36748;BME280;22716;51.556;5.080;2024-02-26T11:00:56;99685.78;;;5.69;100.00
36748;BME280;22716;51.556;5.080;2024-02-26T11:03:25;99684.97;;;5.61;100.00
36748;BME280;22716;51.556;5.080;2024-02-26T11:05:57;99686.72;;;5.63;100.00
36748;BME280;22716;51.556;5.080;2024-02-26T11:08:28;99691.88;;;5.65;100.00
36748;BME280;22716;51.556;5.080;2024-02-26T11:10:58;99711.81;;;5.64;100.00
36748;BME280;22716;51.556;5.080;2024-02-26T11:13:28;99700.59;;;5.58;100.00
36748;BME280;22716;51.556;5.080;2024-02-26T11:16:00;99711.00;;;5.56;100.00
36748;BME280;22716;51.556;5.080;2024-02-26T11:18:30;99705.78;;;5.62;100.00
36748;BME280;22716;51.556;5.080;2024-02-26T11:21:03;99710.13;;;5.60;100.00
36748;BME280;22716;51.556;5.080;2024-02-26T11:23:33;99704.94;;;5.56;100.00
36748;BME280;22716;51.556;5.080;2024-02-26T11:26:05;99710.13;;;5.59;100.00
36748;BME280;22716;51.556;5.080;2024-02-26T11:28:34;99704.88;;;5.65;100.00
36748;BME280;22716;51.556;5.080;2024-02-26T11:31:04;99712.69;;;5.62;100.00
36748;BME280;22716;51.556;5.080;2024-02-26T11:33:34;99709.22;;;5.61;100.00
36748;BME280;22716;51.556;5.080;2024-02-26T11:36:11;99709.25;;;5.58;100.00
36748;BME280;22716;51.556;5.080;2024-02-26T11:38:40;99712.69;;;5.65;100.00
36748;BME280;22716;51.556;5.080;2024-02-26T11:41:09;99715.31;;;5.59;100.00
36748;BME280;22716;51.556;5.080;2024-02-26T11:43:50;99708.41;;;5.59;100.00
36748;BME280;22716;51.556;5.080;2024-02-26T11:46:26;99711.00;;;5.55;100.00
36748;BME280;22716;51.556;5.080;2024-02-26T11:49:00;99710.16;;;5.57;100.00
36748;BME280;22716;51.556;5.080;2024-02-26T11:51:33;99720.50;;;5.62;100.00
36748;BME280;22716;51.556;5.080;2024-02-26T11:54:02;99716.16;;;5.61;100.00
36748;BME280;22716;51.556;5.080;2024-02-26T11:56:34;99701.47;;;5.60;100.00
36748;BME280;22716;51.556;5.080;2024-02-26T11:59:04;99719.59;;;5.66;100.00
36748;BME280;22716;51.556;5.080;2024-02-26T12:01:41;99725.63;;;5.70;100.00
36748;BME280;22716;51.556;5.080;2024-02-26T12:04:18;99721.28;;;5.70;100.00
36748;BME280;22716;51.556;5.080;2024-02-26T12:06:51;99730.03;;;5.61;100.00
36748;BME280;22716;51.556;5.080;2024-02-26T12:09:34;99717.94;;;5.56;100.00
36748;BME280;22716;51.556;5.080;2024-02-26T12:12:05;99742.13;;;5.64;100.00
36748;BME280;22716;51.556;5.080;2024-02-26T12:14:37;99726.56;;;5.58;100.00
36748;BME280;22716;51.556;5.080;2024-02-26T12:17:07;99748.16;;;5.68;100.00
36748;BME280;22716;51.556;5.080;2024-02-26T12:19:43;99752.50;;;5.67;100.00
36748;BME280;22716;51.556;5.080;2024-02-26T12:22:15;99757.72;;;5.61;100.00
36748;BME280;22716;51.556;5.080;2024-02-26T12:24:44;99762.06;;;5.62;100.00
36748;BME280;22716;51.556;5.080;2024-02-26T12:27:13;99768.09;;;5.64;100.00
36748;BME280;22716;51.556;5.080;2024-02-26T12:29:42;99780.25;;;5.65;100.00
36748;BME280;22716;51.556;5.080;2024-02-26T12:32:10;99777.59;;;5.70;100.00
36748;BME280;22716;51.556;5.080;2024-02-26T12:34:39;99762.94;;;5.61;100.00
36748;BME280;22716;51.556;5.080;2024-02-26T12:37:09;99776.75;;;5.68;100.00
36748;BME280;22716;51.556;5.080;2024-02-26T12:39:41;99787.13;;;5.72;100.00
36748;BME280;22716;51.556;5.080;2024-02-26T12:42:11;99783.63;;;5.76;100.00
36748;BME280;22716;51.556;5.080;2024-02-26T12:44:40;99768.16;;;5.58;100.00
36748;BME280;22716;51.556;5.080;2024-02-26T12:47:09;99802.69;;;5.74;100.00
36748;BME280;22716;51.556;5.080;2024-02-26T12:49:42;99807.94;;;5.69;100.00
36748;BME280;22716;51.556;5.080;2024-02-26T12:52:13;99802.75;;;5.66;100.00
36748;BME280;22716;51.556;5.080;2024-02-26T12:54:44;99807.03;;;5.70;100.00
36748;BME280;22716;51.556;5.080;2024-02-26T12:57:13;99809.66;;;5.70;100.00
36748;BME280;22716;51.556;5.080;2024-02-26T12:59:42;99816.66;;;5.63;100.00
36748;BME280;22716;51.556;5.080;2024-02-26T13:02:10;99819.97;;;5.79;100.00
36748;BME280;22716;51.556;5.080;2024-02-26T13:04:39;99819.13;;;5.76;100.00
36748;BME280;22716;51.556;5.080;2024-02-26T13:07:09;99832.09;;;5.82;100.00
36748;BME280;22716;51.556;5.080;2024-02-26T13:09:38;99834.72;;;5.77;100.00
36748;BME280;22716;51.556;5.080;2024-02-26T13:12:10;99826.13;;;5.72;100.00